sensor_id;sensor_type;location;lat;lon;timestamp;P1;durP1;ratioP1;P2;durP2;ratioP2
33864;SDS011;20159;51.072;13.526;2022-12-18T00:02:11;39.63;;;22.05;;
33864;SDS011;20159;51.072;13.526;2022-12-18T00:04:37;41.15;;;21.40;;
33864;SDS011;20159;51.072;13.526;2022-12-18T00:07:02;36.72;;;20.88;;
33864;SDS011;20159;51.072;13.526;2022-12-18T00:09:28;38.05;;;22.02;;
33864;SDS011;20159;51.072;13.526;2022-12-18T00:11:53;35.85;;;20.20;;
33864;SDS011;20159;51.072;13.526;2022-12-18T00:14:19;37.38;;;21.60;;
33864;SDS011;20159;51.072;13.526;2022-12-18T00:16:45;37.50;;;23.10;;
33864;SDS011;20159;51.072;13.526;2022-12-18T00:19:12;35.55;;;21.55;;
33864;SDS011;20159;51.072;13.526;2022-12-18T00:21:38;37.47;;;22.63;;
33864;SDS011;20159;51.072;13.526;2022-12-18T00:24:05;40.20;;;23.60;;
33864;SDS011;20159;51.072;13.526;2022-12-18T00:26:32;38.05;;;22.35;;
33864;SDS011;20159;51.072;13.526;2022-12-18T00:29:06;40.10;;;23.67;;
33864;SDS011;20159;51.072;13.526;2022-12-18T00:31:35;36.80;;;21.20;;
33864;SDS011;20159;51.072;13.526;2022-12-18T00:34:01;35.40;;;20.85;;
33864;SDS011;20159;51.072;13.526;2022-12-18T00:36:31;38.28;;;20.38;;
33864;SDS011;20159;51.072;13.526;2022-12-18T00:38:59;39.30;;;22.35;;
33864;SDS011;20159;51.072;13.526;2022-12-18T00:41:26;36.92;;;20.48;;
33864;SDS011;20159;51.072;13.526;2022-12-18T00:44:12;38.63;;;20.45;;
33864;SDS011;20159;51.072;13.526;2022-12-18T00:46:39;33.92;;;19.92;;
33864;SDS011;20159;51.072;13.526;2022-12-18T00:49:06;31.17;;;19.55;;
33864;SDS011;20159;51.072;13.526;2022-12-18T00:51:32;35.83;;;19.25;;
33864;SDS011;20159;51.072;13.526;2022-12-18T00:53:57;31.50;;;17.83;;
33864;SDS011;20159;51.072;13.526;2022-12-18T00:56:23;32.03;;;19.15;;
33864;SDS011;20159;51.072;13.526;2022-12-18T00:58:49;34.72;;;20.42;;
33864;SDS011;20159;51.072;13.526;2022-12-18T01:01:15;34.22;;;19.67;;
33864;SDS011;20159;51.072;13.526;2022-12-18T01:03:41;30.13;;;18.35;;
33864;SDS011;20159;51.072;13.526;2022-12-18T01:06:08;34.33;;;18.38;;
33864;SDS011;20159;51.072;13.526;2022-12-18T01:08:37;30.77;;;18.60;;
33864;SDS011;20159;51.072;13.526;2022-12-18T01:11:07;30.00;;;17.85;;
33864;SDS011;20159;51.072;13.526;2022-12-18T01:13:34;33.90;;;20.50;;
33864;SDS011;20159;51.072;13.526;2022-12-18T01:16:00;30.77;;;17.23;;
33864;SDS011;20159;51.072;13.526;2022-12-18T01:18:25;30.95;;;18.10;;
33864;SDS011;20159;51.072;13.526;2022-12-18T01:20:51;32.58;;;17.08;;
33864;SDS011;20159;51.072;13.526;2022-12-18T01:23:16;27.40;;;17.33;;
33864;SDS011;20159;51.072;13.526;2022-12-18T01:25:42;30.45;;;18.40;;
33864;SDS011;20159;51.072;13.526;2022-12-18T01:28:07;28.67;;;16.63;;
33864;SDS011;20159;51.072;13.526;2022-12-18T01:30:33;29.33;;;16.83;;
33864;SDS011;20159;51.072;13.526;2022-12-18T01:32:58;29.35;;;17.58;;
33864;SDS011;20159;51.072;13.526;2022-12-18T01:35:24;29.00;;;16.23;;
33864;SDS011;20159;51.072;13.526;2022-12-18T01:37:53;29.08;;;17.10;;
33864;SDS011;20159;51.072;13.526;2022-12-18T01:40:20;31.20;;;17.70;;
33864;SDS011;20159;51.072;13.526;2022-12-18T01:42:49;29.98;;;17.60;;
33864;SDS011;20159;51.072;13.526;2022-12-18T01:48:06;27.15;;;16.35;;
33864;SDS011;20159;51.072;13.526;2022-12-18T01:50:35;29.15;;;16.80;;
33864;SDS011;20159;51.072;13.526;2022-12-18T01:53:07;28.80;;;16.10;;
33864;SDS011;20159;51.072;13.526;2022-12-18T01:55:48;24.95;;;15.10;;
33864;SDS011;20159;51.072;13.526;2022-12-18T01:58:21;27.45;;;15.60;;
33864;SDS011;20159;51.072;13.526;2022-12-18T02:00:55;26.98;;;15.75;;
33864;SDS011;20159;51.072;13.526;2022-12-18T02:03:20;24.80;;;14.18;;
33864;SDS011;20159;51.072;13.526;2022-12-18T02:05:53;30.08;;;16.23;;
33864;SDS011;20159;51.072;13.526;2022-12-18T02:08:32;27.05;;;15.93;;
33864;SDS011;20159;51.072;13.526;2022-12-18T02:11:23;29.17;;;17.25;;
33864;SDS011;20159;51.072;13.526;2022-12-18T02:14:09;24.65;;;14.60;;
33864;SDS011;20159;51.072;13.526;2022-12-18T02:16:52;26.23;;;14.48;;
33864;SDS011;20159;51.072;13.526;2022-12-18T02:22:24;26.23;;;15.10;;
33864;SDS011;20159;51.072;13.526;2022-12-18T02:27:49;24.70;;;15.32;;
33864;SDS011;20159;51.072;13.526;2022-12-18T02:30:17;24.92;;;14.63;;
33864;SDS011;20159;51.072;13.526;2022-12-18T02:32:45;23.73;;;14.68;;
33864;SDS011;20159;51.072;13.526;2022-12-18T02:35:15;26.92;;;15.93;;
33864;SDS011;20159;51.072;13.526;2022-12-18T02:37:46;26.58;;;15.63;;
33864;SDS011;20159;51.072;13.526;2022-12-18T02:40:13;24.58;;;14.95;;
33864;SDS011;20159;51.072;13.526;2022-12-18T02:42:40;25.08;;;15.07;;
33864;SDS011;20159;51.072;13.526;2022-12-18T02:45:06;24.92;;;14.05;;
33864;SDS011;20159;51.072;13.526;2022-12-18T02:47:34;23.45;;;14.02;;
33864;SDS011;20159;51.072;13.526;2022-12-18T02:58:17;23.17;;;13.57;;
33864;SDS011;20159;51.072;13.526;2022-12-18T03:03:54;22.05;;;12.82;;
33864;SDS011;20159;51.072;13.526;2022-12-18T03:06:41;23.75;;;13.20;;
33864;SDS011;20159;51.072;13.526;2022-12-18T03:09:13;24.05;;;15.02;;
33864;SDS011;20159;51.072;13.526;2022-12-18T03:11:44;21.25;;;14.27;;
33864;SDS011;20159;51.072;13.526;2022-12-18T03:14:34;24.60;;;14.15;;
33864;SDS011;20159;51.072;13.526;2022-12-18T03:17:05;22.48;;;14.07;;
33864;SDS011;20159;51.072;13.526;2022-12-18T03:19:35;22.52;;;13.43;;
33864;SDS011;20159;51.072;13.526;2022-12-18T03:22:04;21.45;;;13.05;;
33864;SDS011;20159;51.072;13.526;2022-12-18T03:24:31;23.92;;;13.77;;
33864;SDS011;20159;51.072;13.526;2022-12-18T03:27:00;21.05;;;12.63;;
33864;SDS011;20159;51.072;13.526;2022-12-18T03:29:28;20.95;;;12.63;;
33864;SDS011;20159;51.072;13.526;2022-12-18T03:32:01;18.92;;;11.35;;
33864;SDS011;20159;51.072;13.526;2022-12-18T03:34:35;19.48;;;12.32;;
33864;SDS011;20159;51.072;13.526;2022-12-18T03:37:04;18.40;;;11.10;;
33864;SDS011;20159;51.072;13.526;2022-12-18T03:39:30;18.13;;;11.85;;
33864;SDS011;20159;51.072;13.526;2022-12-18T03:47:38;17.75;;;11.55;;
33864;SDS011;20159;51.072;13.526;2022-12-18T03:52:49;19.27;;;11.07;;
33864;SDS011;20159;51.072;13.526;2022-12-18T03:55:25;20.25;;;11.27;;
33864;SDS011;20159;51.072;13.526;2022-12-18T03:57:54;18.52;;;11.20;;
33864;SDS011;20159;51.072;13.526;2022-12-18T04:00:20;20.52;;;12.05;;
33864;SDS011;20159;51.072;13.526;2022-12-18T04:02:48;18.77;;;11.23;;
33864;SDS011;20159;51.072;13.526;2022-12-18T04:05:17;20.15;;;11.60;;
33864;SDS011;20159;51.072;13.526;2022-12-18T04:07:47;17.40;;;10.85;;
33864;SDS011;20159;51.072;13.526;2022-12-18T04:10:13;20.08;;;12.05;;
33864;SDS011;20159;51.072;13.526;2022-12-18T04:12:41;18.35;;;12.20;;
33864;SDS011;20159;51.072;13.526;2022-12-18T04:15:07;19.50;;;11.68;;
33864;SDS011;20159;51.072;13.526;2022-12-18T04:17:33;20.98;;;11.15;;
33864;SDS011;20159;51.072;13.526;2022-12-18T04:19:58;18.45;;;11.50;;
33864;SDS011;20159;51.072;13.526;2022-12-18T04:22:24;16.48;;;11.60;;
33864;SDS011;20159;51.072;13.526;2022-12-18T04:24:49;17.20;;;10.45;;
33864;SDS011;20159;51.072;13.526;2022-12-18T04:27:15;21.23;;;12.02;;
33864;SDS011;20159;51.072;13.526;2022-12-18T04:29:40;18.48;;;10.95;;
33864;SDS011;20159;51.072;13.526;2022-12-18T04:32:06;17.23;;;11.27;;
33864;SDS011;20159;51.072;13.526;2022-12-18T04:34:32;17.85;;;11.38;;
33864;SDS011;20159;51.072;13.526;2022-12-18T04:36:58;20.95;;;10.45;;
33864;SDS011;20159;51.072;13.526;2022-12-18T04:39:23;16.70;;;9.95;;
33864;SDS011;20159;51.072;13.526;2022-12-18T04:41:49;16.15;;;10.50;;
33864;SDS011;20159;51.072;13.526;2022-12-18T04:44:15;17.27;;;10.32;;
33864;SDS011;20159;51.072;13.526;2022-12-18T04:46:40;15.30;;;9.45;;
33864;SDS011;20159;51.072;13.526;2022-12-18T04:49:06;18.45;;;11.65;;
33864;SDS011;20159;51.072;13.526;2022-12-18T04:51:31;17.30;;;10.05;;
33864;SDS011;20159;51.072;13.526;2022-12-18T04:53:57;18.60;;;11.35;;
33864;SDS011;20159;51.072;13.526;2022-12-18T04:56:22;18.50;;;10.85;;
33864;SDS011;20159;51.072;13.526;2022-12-18T04:58:48;16.55;;;10.88;;
33864;SDS011;20159;51.072;13.526;2022-12-18T05:01:14;19.83;;;10.82;;
33864;SDS011;20159;51.072;13.526;2022-12-18T05:03:41;16.40;;;10.88;;
33864;SDS011;20159;51.072;13.526;2022-12-18T05:06:07;19.00;;;10.77;;
33864;SDS011;20159;51.072;13.526;2022-12-18T05:08:32;16.67;;;10.35;;
33864;SDS011;20159;51.072;13.526;2022-12-18T05:11:02;16.50;;;10.43;;
33864;SDS011;20159;51.072;13.526;2022-12-18T05:13:29;17.85;;;10.90;;
33864;SDS011;20159;51.072;13.526;2022-12-18T05:15:55;15.43;;;9.80;;
33864;SDS011;20159;51.072;13.526;2022-12-18T05:18:21;18.55;;;10.80;;
33864;SDS011;20159;51.072;13.526;2022-12-18T05:20:51;16.77;;;10.77;;
33864;SDS011;20159;51.072;13.526;2022-12-18T05:23:17;16.70;;;11.18;;
33864;SDS011;20159;51.072;13.526;2022-12-18T05:25:47;18.20;;;10.10;;
33864;SDS011;20159;51.072;13.526;2022-12-18T05:28:16;18.67;;;10.35;;
33864;SDS011;20159;51.072;13.526;2022-12-18T05:30:42;17.45;;;10.73;;
33864;SDS011;20159;51.072;13.526;2022-12-18T05:33:07;18.08;;;11.10;;
33864;SDS011;20159;51.072;13.526;2022-12-18T05:35:33;22.65;;;12.82;;
33864;SDS011;20159;51.072;13.526;2022-12-18T05:37:58;17.02;;;10.55;;
33864;SDS011;20159;51.072;13.526;2022-12-18T05:40:24;20.15;;;11.18;;
33864;SDS011;20159;51.072;13.526;2022-12-18T05:42:50;18.02;;;11.20;;
33864;SDS011;20159;51.072;13.526;2022-12-18T05:45:15;21.25;;;11.50;;
33864;SDS011;20159;51.072;13.526;2022-12-18T05:47:41;19.67;;;11.82;;
33864;SDS011;20159;51.072;13.526;2022-12-18T05:50:07;16.40;;;10.02;;
33864;SDS011;20159;51.072;13.526;2022-12-18T05:52:32;16.73;;;10.63;;
33864;SDS011;20159;51.072;13.526;2022-12-18T05:54:58;18.08;;;10.57;;
33864;SDS011;20159;51.072;13.526;2022-12-18T05:57:24;14.02;;;9.38;;
33864;SDS011;20159;51.072;13.526;2022-12-18T05:59:49;16.00;;;10.13;;
33864;SDS011;20159;51.072;13.526;2022-12-18T06:02:15;16.05;;;10.57;;
33864;SDS011;20159;51.072;13.526;2022-12-18T06:04:40;18.10;;;9.70;;
33864;SDS011;20159;51.072;13.526;2022-12-18T06:07:06;15.40;;;9.63;;
33864;SDS011;20159;51.072;13.526;2022-12-18T06:09:32;16.45;;;9.73;;
33864;SDS011;20159;51.072;13.526;2022-12-18T06:11:57;16.52;;;10.45;;
33864;SDS011;20159;51.072;13.526;2022-12-18T06:14:23;19.02;;;10.10;;
33864;SDS011;20159;51.072;13.526;2022-12-18T06:16:50;16.33;;;9.63;;
33864;SDS011;20159;51.072;13.526;2022-12-18T06:19:16;15.98;;;9.57;;
33864;SDS011;20159;51.072;13.526;2022-12-18T06:21:42;16.13;;;9.27;;
33864;SDS011;20159;51.072;13.526;2022-12-18T06:24:08;16.90;;;9.25;;
33864;SDS011;20159;51.072;13.526;2022-12-18T06:26:33;14.80;;;10.07;;
33864;SDS011;20159;51.072;13.526;2022-12-18T06:29:01;16.08;;;10.18;;
33864;SDS011;20159;51.072;13.526;2022-12-18T06:31:26;14.82;;;9.50;;
33864;SDS011;20159;51.072;13.526;2022-12-18T06:33:52;14.77;;;10.43;;
33864;SDS011;20159;51.072;13.526;2022-12-18T06:36:18;17.40;;;10.68;;
33864;SDS011;20159;51.072;13.526;2022-12-18T06:38:44;15.95;;;10.07;;
33864;SDS011;20159;51.072;13.526;2022-12-18T06:41:14;14.13;;;9.60;;
33864;SDS011;20159;51.072;13.526;2022-12-18T06:43:41;17.77;;;10.82;;
33864;SDS011;20159;51.072;13.526;2022-12-18T06:46:08;18.55;;;11.52;;
33864;SDS011;20159;51.072;13.526;2022-12-18T06:48:33;17.52;;;11.02;;
33864;SDS011;20159;51.072;13.526;2022-12-18T06:50:59;16.40;;;9.68;;
33864;SDS011;20159;51.072;13.526;2022-12-18T06:53:25;16.80;;;10.35;;
33864;SDS011;20159;51.072;13.526;2022-12-18T06:55:51;17.73;;;10.32;;
33864;SDS011;20159;51.072;13.526;2022-12-18T06:58:17;15.77;;;10.95;;
33864;SDS011;20159;51.072;13.526;2022-12-18T07:00:43;17.23;;;10.55;;
33864;SDS011;20159;51.072;13.526;2022-12-18T07:03:08;15.73;;;11.18;;
33864;SDS011;20159;51.072;13.526;2022-12-18T07:05:39;18.10;;;11.52;;
33864;SDS011;20159;51.072;13.526;2022-12-18T07:08:05;17.52;;;11.45;;
33864;SDS011;20159;51.072;13.526;2022-12-18T07:10:31;14.05;;;10.68;;
33864;SDS011;20159;51.072;13.526;2022-12-18T07:12:56;16.45;;;10.65;;
33864;SDS011;20159;51.072;13.526;2022-12-18T07:15:22;17.60;;;11.50;;
33864;SDS011;20159;51.072;13.526;2022-12-18T07:17:47;18.83;;;12.05;;
33864;SDS011;20159;51.072;13.526;2022-12-18T07:20:13;19.55;;;11.73;;
33864;SDS011;20159;51.072;13.526;2022-12-18T07:22:38;17.67;;;11.02;;
33864;SDS011;20159;51.072;13.526;2022-12-18T07:25:04;16.73;;;11.32;;
33864;SDS011;20159;51.072;13.526;2022-12-18T07:27:30;20.05;;;11.63;;
33864;SDS011;20159;51.072;13.526;2022-12-18T07:29:56;19.70;;;11.43;;
33864;SDS011;20159;51.072;13.526;2022-12-18T07:32:22;19.23;;;12.80;;
33864;SDS011;20159;51.072;13.526;2022-12-18T07:34:47;17.10;;;11.60;;
33864;SDS011;20159;51.072;13.526;2022-12-18T07:37:13;18.42;;;12.60;;
33864;SDS011;20159;51.072;13.526;2022-12-18T07:39:38;18.58;;;12.23;;
33864;SDS011;20159;51.072;13.526;2022-12-18T07:42:04;18.73;;;13.05;;
33864;SDS011;20159;51.072;13.526;2022-12-18T07:44:51;19.80;;;13.05;;
33864;SDS011;20159;51.072;13.526;2022-12-18T07:47:17;22.05;;;14.00;;
33864;SDS011;20159;51.072;13.526;2022-12-18T07:49:42;22.27;;;15.20;;
33864;SDS011;20159;51.072;13.526;2022-12-18T07:52:08;22.65;;;14.15;;
33864;SDS011;20159;51.072;13.526;2022-12-18T07:54:34;22.40;;;14.60;;
33864;SDS011;20159;51.072;13.526;2022-12-18T07:56:59;24.92;;;14.57;;
33864;SDS011;20159;51.072;13.526;2022-12-18T07:59:25;23.95;;;15.52;;
33864;SDS011;20159;51.072;13.526;2022-12-18T08:01:51;23.05;;;15.52;;
33864;SDS011;20159;51.072;13.526;2022-12-18T08:04:16;24.38;;;15.98;;
33864;SDS011;20159;51.072;13.526;2022-12-18T08:06:42;20.38;;;17.00;;
33864;SDS011;20159;51.072;13.526;2022-12-18T08:09:09;23.30;;;17.90;;
33864;SDS011;20159;51.072;13.526;2022-12-18T08:11:35;22.25;;;18.58;;
33864;SDS011;20159;51.072;13.526;2022-12-18T08:14:00;23.58;;;18.35;;
33864;SDS011;20159;51.072;13.526;2022-12-18T08:16:26;20.30;;;17.88;;
33864;SDS011;20159;51.072;13.526;2022-12-18T08:18:52;22.30;;;18.45;;
33864;SDS011;20159;51.072;13.526;2022-12-18T08:21:19;25.13;;;18.95;;
33864;SDS011;20159;51.072;13.526;2022-12-18T08:23:48;21.67;;;18.48;;
33864;SDS011;20159;51.072;13.526;2022-12-18T08:26:15;23.52;;;20.65;;
33864;SDS011;20159;51.072;13.526;2022-12-18T08:28:41;25.27;;;21.80;;
33864;SDS011;20159;51.072;13.526;2022-12-18T08:31:07;25.08;;;20.92;;
33864;SDS011;20159;51.072;13.526;2022-12-18T08:33:33;28.38;;;22.73;;
33864;SDS011;20159;51.072;13.526;2022-12-18T08:36:00;27.05;;;21.70;;
33864;SDS011;20159;51.072;13.526;2022-12-18T08:38:26;28.25;;;22.30;;
33864;SDS011;20159;51.072;13.526;2022-12-18T08:41:11;27.45;;;21.95;;
33864;SDS011;20159;51.072;13.526;2022-12-18T08:43:38;31.87;;;23.83;;
33864;SDS011;20159;51.072;13.526;2022-12-18T08:46:24;30.33;;;23.83;;
33864;SDS011;20159;51.072;13.526;2022-12-18T08:48:52;27.20;;;21.63;;
33864;SDS011;20159;51.072;13.526;2022-12-18T08:51:19;27.17;;;20.73;;
33864;SDS011;20159;51.072;13.526;2022-12-18T08:53:45;25.80;;;19.42;;
33864;SDS011;20159;51.072;13.526;2022-12-18T08:56:11;24.52;;;18.88;;
33864;SDS011;20159;51.072;13.526;2022-12-18T08:58:38;25.00;;;17.70;;
33864;SDS011;20159;51.072;13.526;2022-12-18T09:01:04;24.25;;;18.73;;
33864;SDS011;20159;51.072;13.526;2022-12-18T09:03:32;26.60;;;20.20;;
33864;SDS011;20159;51.072;13.526;2022-12-18T09:05:57;24.52;;;19.65;;
33864;SDS011;20159;51.072;13.526;2022-12-18T09:08:24;25.63;;;18.98;;
33864;SDS011;20159;51.072;13.526;2022-12-18T09:10:50;25.67;;;20.13;;
33864;SDS011;20159;51.072;13.526;2022-12-18T09:13:16;26.08;;;20.27;;
33864;SDS011;20159;51.072;13.526;2022-12-18T09:15:43;23.10;;;19.20;;
33864;SDS011;20159;51.072;13.526;2022-12-18T09:18:11;22.48;;;17.73;;
33864;SDS011;20159;51.072;13.526;2022-12-18T09:20:37;19.83;;;16.92;;
33864;SDS011;20159;51.072;13.526;2022-12-18T09:23:04;23.08;;;17.80;;
33864;SDS011;20159;51.072;13.526;2022-12-18T09:25:30;20.33;;;16.65;;
33864;SDS011;20159;51.072;13.526;2022-12-18T09:27:58;20.30;;;16.35;;
33864;SDS011;20159;51.072;13.526;2022-12-18T09:30:25;18.95;;;15.40;;
33864;SDS011;20159;51.072;13.526;2022-12-18T09:32:51;17.88;;;15.27;;
33864;SDS011;20159;51.072;13.526;2022-12-18T09:35:17;18.38;;;15.95;;
33864;SDS011;20159;51.072;13.526;2022-12-18T09:37:42;17.92;;;15.80;;
33864;SDS011;20159;51.072;13.526;2022-12-18T09:40:13;18.20;;;15.00;;
33864;SDS011;20159;51.072;13.526;2022-12-18T09:42:39;17.35;;;14.65;;
33864;SDS011;20159;51.072;13.526;2022-12-18T09:45:07;18.55;;;15.30;;
33864;SDS011;20159;51.072;13.526;2022-12-18T09:47:37;19.52;;;15.57;;
33864;SDS011;20159;51.072;13.526;2022-12-18T09:50:06;17.98;;;14.70;;
33864;SDS011;20159;51.072;13.526;2022-12-18T09:52:54;17.70;;;14.63;;
33864;SDS011;20159;51.072;13.526;2022-12-18T09:55:24;19.15;;;14.60;;
33864;SDS011;20159;51.072;13.526;2022-12-18T09:57:52;16.80;;;13.85;;
33864;SDS011;20159;51.072;13.526;2022-12-18T10:00:22;17.92;;;14.60;;
33864;SDS011;20159;51.072;13.526;2022-12-18T10:02:52;16.45;;;13.75;;
33864;SDS011;20159;51.072;13.526;2022-12-18T10:05:34;16.70;;;14.85;;
33864;SDS011;20159;51.072;13.526;2022-12-18T10:08:13;20.08;;;16.20;;
33864;SDS011;20159;51.072;13.526;2022-12-18T10:10:51;19.13;;;15.38;;
33864;SDS011;20159;51.072;13.526;2022-12-18T10:13:21;20.60;;;16.58;;
33864;SDS011;20159;51.072;13.526;2022-12-18T10:18:22;19.17;;;15.10;;
33864;SDS011;20159;51.072;13.526;2022-12-18T10:21:11;18.67;;;14.85;;
33864;SDS011;20159;51.072;13.526;2022-12-18T10:26:29;15.73;;;13.32;;
33864;SDS011;20159;51.072;13.526;2022-12-18T10:28:57;14.98;;;11.57;;
33864;SDS011;20159;51.072;13.526;2022-12-18T10:31:24;13.77;;;11.65;;
33864;SDS011;20159;51.072;13.526;2022-12-18T10:33:50;16.17;;;12.82;;
33864;SDS011;20159;51.072;13.526;2022-12-18T10:36:16;14.65;;;11.98;;
33864;SDS011;20159;51.072;13.526;2022-12-18T10:38:42;14.75;;;12.30;;
33864;SDS011;20159;51.072;13.526;2022-12-18T10:41:23;15.52;;;12.73;;
33864;SDS011;20159;51.072;13.526;2022-12-18T10:44:12;15.98;;;13.18;;
33864;SDS011;20159;51.072;13.526;2022-12-18T10:46:46;17.00;;;14.23;;
33864;SDS011;20159;51.072;13.526;2022-12-18T10:49:21;18.50;;;15.35;;
33864;SDS011;20159;51.072;13.526;2022-12-18T10:51:51;19.35;;;15.75;;
33864;SDS011;20159;51.072;13.526;2022-12-18T10:54:32;20.48;;;17.17;;
33864;SDS011;20159;51.072;13.526;2022-12-18T10:59:59;20.73;;;17.17;;
33864;SDS011;20159;51.072;13.526;2022-12-18T11:02:44;24.73;;;17.48;;
33864;SDS011;20159;51.072;13.526;2022-12-18T11:05:23;20.55;;;17.42;;
33864;SDS011;20159;51.072;13.526;2022-12-18T11:07:50;21.77;;;17.30;;
33864;SDS011;20159;51.072;13.526;2022-12-18T11:10:17;21.42;;;17.77;;
33864;SDS011;20159;51.072;13.526;2022-12-18T11:12:43;21.63;;;17.88;;
33864;SDS011;20159;51.072;13.526;2022-12-18T11:15:26;22.65;;;17.95;;
33864;SDS011;20159;51.072;13.526;2022-12-18T11:17:54;21.67;;;17.63;;
33864;SDS011;20159;51.072;13.526;2022-12-18T11:20:34;21.58;;;17.48;;
33864;SDS011;20159;51.072;13.526;2022-12-18T11:23:04;20.63;;;17.20;;
33864;SDS011;20159;51.072;13.526;2022-12-18T11:25:38;22.40;;;17.13;;
33864;SDS011;20159;51.072;13.526;2022-12-18T11:36:25;23.90;;;17.60;;
33864;SDS011;20159;51.072;13.526;2022-12-18T11:38:57;21.83;;;17.75;;
33864;SDS011;20159;51.072;13.526;2022-12-18T11:41:41;23.73;;;18.33;;
33864;SDS011;20159;51.072;13.526;2022-12-18T11:50:05;25.02;;;20.70;;
33864;SDS011;20159;51.072;13.526;2022-12-18T11:53:02;26.02;;;20.20;;
33864;SDS011;20159;51.072;13.526;2022-12-18T11:58:18;27.60;;;20.70;;
33864;SDS011;20159;51.072;13.526;2022-12-18T12:04:05;30.08;;;22.25;;
33864;SDS011;20159;51.072;13.526;2022-12-18T12:12:24;29.08;;;20.90;;
33864;SDS011;20159;51.072;13.526;2022-12-18T12:14:59;29.23;;;22.38;;
33864;SDS011;20159;51.072;13.526;2022-12-18T12:17:57;30.42;;;22.77;;
33864;SDS011;20159;51.072;13.526;2022-12-18T12:23:22;29.85;;;22.20;;
33864;SDS011;20159;51.072;13.526;2022-12-18T12:34:08;32.22;;;24.13;;
33864;SDS011;20159;51.072;13.526;2022-12-18T12:39:44;31.73;;;24.50;;
33864;SDS011;20159;51.072;13.526;2022-12-18T12:45:23;39.20;;;28.23;;
33864;SDS011;20159;51.072;13.526;2022-12-18T12:47:55;36.38;;;26.60;;
33864;SDS011;20159;51.072;13.526;2022-12-18T12:50:24;36.33;;;25.95;;
33864;SDS011;20159;51.072;13.526;2022-12-18T12:52:51;37.28;;;27.25;;
33864;SDS011;20159;51.072;13.526;2022-12-18T12:55:23;35.78;;;26.25;;
33864;SDS011;20159;51.072;13.526;2022-12-18T12:58:00;40.03;;;26.35;;
33864;SDS011;20159;51.072;13.526;2022-12-18T13:00:29;37.00;;;26.77;;
33864;SDS011;20159;51.072;13.526;2022-12-18T13:05:43;40.53;;;27.20;;
33864;SDS011;20159;51.072;13.526;2022-12-18T13:10:51;33.25;;;24.63;;
33864;SDS011;20159;51.072;13.526;2022-12-18T13:13:47;36.65;;;26.80;;
33864;SDS011;20159;51.072;13.526;2022-12-18T13:16:18;35.20;;;26.05;;
33864;SDS011;20159;51.072;13.526;2022-12-18T13:18:49;37.10;;;27.00;;
33864;SDS011;20159;51.072;13.526;2022-12-18T13:21:24;39.72;;;27.55;;
33864;SDS011;20159;51.072;13.526;2022-12-18T13:23:56;38.88;;;27.58;;
33864;SDS011;20159;51.072;13.526;2022-12-18T13:26:33;36.97;;;27.23;;
33864;SDS011;20159;51.072;13.526;2022-12-18T13:28:59;35.25;;;26.27;;
33864;SDS011;20159;51.072;13.526;2022-12-18T13:36:46;37.10;;;26.55;;
33864;SDS011;20159;51.072;13.526;2022-12-18T13:41:46;38.78;;;27.35;;
33864;SDS011;20159;51.072;13.526;2022-12-18T13:44:22;41.47;;;28.63;;
33864;SDS011;20159;51.072;13.526;2022-12-18T13:47:03;38.58;;;27.90;;
33864;SDS011;20159;51.072;13.526;2022-12-18T13:55:01;38.72;;;27.80;;
33864;SDS011;20159;51.072;13.526;2022-12-18T13:57:31;40.78;;;28.10;;
33864;SDS011;20159;51.072;13.526;2022-12-18T14:00:01;41.72;;;28.48;;
33864;SDS011;20159;51.072;13.526;2022-12-18T14:02:52;43.80;;;29.48;;
33864;SDS011;20159;51.072;13.526;2022-12-18T14:07:48;40.53;;;28.77;;
33864;SDS011;20159;51.072;13.526;2022-12-18T14:10:13;41.40;;;28.65;;
33864;SDS011;20159;51.072;13.526;2022-12-18T14:12:44;42.30;;;29.02;;
33864;SDS011;20159;51.072;13.526;2022-12-18T14:17:57;43.38;;;28.48;;
33864;SDS011;20159;51.072;13.526;2022-12-18T14:20:24;40.13;;;28.90;;
33864;SDS011;20159;51.072;13.526;2022-12-18T14:22:51;39.25;;;27.08;;
33864;SDS011;20159;51.072;13.526;2022-12-18T14:25:35;38.17;;;27.50;;
33864;SDS011;20159;51.072;13.526;2022-12-18T14:30:36;40.30;;;27.20;;
33864;SDS011;20159;51.072;13.526;2022-12-18T14:33:05;38.10;;;27.30;;
33864;SDS011;20159;51.072;13.526;2022-12-18T14:35:37;37.63;;;27.30;;
33864;SDS011;20159;51.072;13.526;2022-12-18T14:40:47;36.15;;;25.00;;
33864;SDS011;20159;51.072;13.526;2022-12-18T14:43:16;33.95;;;23.63;;
33864;SDS011;20159;51.072;13.526;2022-12-18T14:45:42;37.65;;;25.48;;
33864;SDS011;20159;51.072;13.526;2022-12-18T14:48:16;36.85;;;24.77;;
33864;SDS011;20159;51.072;13.526;2022-12-18T14:50:44;36.38;;;23.65;;
33864;SDS011;20159;51.072;13.526;2022-12-18T14:53:20;39.63;;;26.77;;
33864;SDS011;20159;51.072;13.526;2022-12-18T14:55:48;39.35;;;24.77;;
33864;SDS011;20159;51.072;13.526;2022-12-18T14:58:15;36.42;;;24.88;;
33864;SDS011;20159;51.072;13.526;2022-12-18T15:00:42;38.10;;;23.75;;
33864;SDS011;20159;51.072;13.526;2022-12-18T15:03:08;34.67;;;23.70;;
33864;SDS011;20159;51.072;13.526;2022-12-18T15:05:34;35.25;;;23.52;;
33864;SDS011;20159;51.072;13.526;2022-12-18T15:08:01;36.78;;;24.05;;
33864;SDS011;20159;51.072;13.526;2022-12-18T15:10:33;32.80;;;23.17;;
33864;SDS011;20159;51.072;13.526;2022-12-18T15:18:09;37.03;;;24.65;;
33864;SDS011;20159;51.072;13.526;2022-12-18T15:20:41;36.05;;;23.65;;
33864;SDS011;20159;51.072;13.526;2022-12-18T15:23:20;34.80;;;22.90;;
33864;SDS011;20159;51.072;13.526;2022-12-18T15:25:55;33.88;;;23.10;;
33864;SDS011;20159;51.072;13.526;2022-12-18T15:28:23;36.90;;;24.02;;
33864;SDS011;20159;51.072;13.526;2022-12-18T15:31:05;35.42;;;23.80;;
33864;SDS011;20159;51.072;13.526;2022-12-18T15:36:19;35.80;;;23.40;;
33864;SDS011;20159;51.072;13.526;2022-12-18T15:38:47;33.08;;;22.77;;
33864;SDS011;20159;51.072;13.526;2022-12-18T15:41:17;33.05;;;21.88;;
33864;SDS011;20159;51.072;13.526;2022-12-18T15:43:45;34.38;;;22.98;;
33864;SDS011;20159;51.072;13.526;2022-12-18T15:46:13;32.55;;;22.55;;
33864;SDS011;20159;51.072;13.526;2022-12-18T15:48:47;37.05;;;23.65;;
33864;SDS011;20159;51.072;13.526;2022-12-18T15:51:15;40.47;;;23.92;;
33864;SDS011;20159;51.072;13.526;2022-12-18T15:53:47;37.40;;;22.98;;
33864;SDS011;20159;51.072;13.526;2022-12-18T15:56:14;36.33;;;23.50;;
33864;SDS011;20159;51.072;13.526;2022-12-18T15:58:59;36.22;;;22.65;;
33864;SDS011;20159;51.072;13.526;2022-12-18T16:01:26;35.75;;;23.42;;
33864;SDS011;20159;51.072;13.526;2022-12-18T16:03:54;37.22;;;22.48;;
33864;SDS011;20159;51.072;13.526;2022-12-18T16:06:20;35.40;;;22.23;;
33864;SDS011;20159;51.072;13.526;2022-12-18T16:08:46;34.03;;;22.00;;
33864;SDS011;20159;51.072;13.526;2022-12-18T16:11:20;39.65;;;22.90;;
33864;SDS011;20159;51.072;13.526;2022-12-18T16:14:15;34.42;;;22.48;;
33864;SDS011;20159;51.072;13.526;2022-12-18T16:16:42;34.80;;;23.20;;
33864;SDS011;20159;51.072;13.526;2022-12-18T16:19:08;35.00;;;22.77;;